createdAt,value
2022-09-23T00:02:10.751Z,93.56
2022-09-23T00:04:39.165Z,93.24
2022-09-23T00:07:07.564Z,92.66
2022-09-23T00:09:36.039Z,93.38
2022-09-23T00:12:08.816Z,93.76
2022-09-23T00:14:40.028Z,93.97
2022-09-23T00:17:08.446Z,94.21
2022-09-23T00:19:39.248Z,93.85
2022-09-23T00:22:08.006Z,93.80
2022-09-23T00:24:36.401Z,95.08
2022-09-23T00:27:05.054Z,94.46
2022-09-23T00:29:33.235Z,93.43
2022-09-23T00:32:01.225Z,92.95
2022-09-23T00:34:29.793Z,93.19
2022-09-23T00:36:58.077Z,93.82
2022-09-23T00:39:27.128Z,94.97
2022-09-23T00:41:56.080Z,94.90
2022-09-23T00:44:48.400Z,93.83
2022-09-23T00:47:34.947Z,93.46
2022-09-23T00:50:26.234Z,94.80
2022-09-23T00:52:57.889Z,95.00
2022-09-23T00:55:33.042Z,95.50
2022-09-23T00:58:04.374Z,94.84
2022-09-23T01:00:33.741Z,94.24
2022-09-23T01:03:05.201Z,93.76
2022-09-23T01:05:36.532Z,94.36
2022-09-23T01:08:05.992Z,94.67
2022-09-23T01:10:57.914Z,93.96
2022-09-23T01:13:47.016Z,94.96
2022-09-23T01:16:17.985Z,95.21
2022-09-23T01:18:58.454Z,94.20
2022-09-23T01:21:43.191Z,94.24
2022-09-23T01:24:30.170Z,94.18
2022-09-23T01:27:13.794Z,94.63
2022-09-23T01:30:16.727Z,94.57
2022-09-23T01:33:19.961Z,94.81
2022-09-23T01:36:23.837Z,95.05
2022-09-23T01:39:18.376Z,94.93
2022-09-23T01:42:29.600Z,94.90
2022-09-23T01:45:10.966Z,95.48
2022-09-23T01:47:52.891Z,94.96
2022-09-23T01:50:51.971Z,94.87
2022-09-23T01:53:31.113Z,93.24
2022-09-23T01:56:08.191Z,93.87
2022-09-23T01:59:02.373Z,94.04
2022-09-23T02:02:02.868Z,94.35
2022-09-23T02:04:39.778Z,94.90
2022-09-23T02:07:25.510Z,95.47
2022-09-23T02:10:08.848Z,94.92
2022-09-23T02:12:40.410Z,93.72
2022-09-23T02:15:18.136Z,94.44
2022-09-23T02:17:59.227Z,95.42
2022-09-23T02:20:33.799Z,96.16
2022-09-23T02:23:08.685Z,96.11
2022-09-23T02:25:47.585Z,95.98
2022-09-23T02:28:24.488Z,95.84
2022-09-23T02:31:08.707Z,95.31
2022-09-23T02:33:55.611Z,95.16
2022-09-23T02:36:49.131Z,94.85
2022-09-23T02:39:22.246Z,95.69
2022-09-23T02:42:07.868Z,95.76
2022-09-23T02:44:36.198Z,94.68
2022-09-23T02:47:04.476Z,93.83
2022-09-23T02:49:36.551Z,93.62
2022-09-23T02:52:07.730Z,93.69
2022-09-23T02:54:38.591Z,93.71
2022-09-23T02:57:08.937Z,94.18
2022-09-23T02:59:38.234Z,95.61
2022-09-23T03:02:30.475Z,96.58
2022-09-23T03:05:24.290Z,96.30
2022-09-23T03:08:19.277Z,95.43
2022-09-23T03:11:04.417Z,96.19
2022-09-23T03:13:51.171Z,96.10
2022-09-23T03:17:01.708Z,96.71
2022-09-23T03:19:57.251Z,96.76
2022-09-23T03:22:35.167Z,96.42
2022-09-23T03:25:10.674Z,96.18
2022-09-23T03:27:40.172Z,96.54
2022-09-23T03:30:09.512Z,96.65
2022-09-23T03:32:38.382Z,95.88
2022-09-23T03:35:07.662Z,96.38
2022-09-23T03:38:03.495Z,96.61
2022-09-23T03:40:42.099Z,96.02
2022-09-23T03:43:11.816Z,96.19
2022-09-23T03:45:41.738Z,95.72
2022-09-23T03:48:10.369Z,95.05
2022-09-23T03:50:39.255Z,95.36
2022-09-23T03:53:07.233Z,96.46
2022-09-23T03:55:35.692Z,96.07
2022-09-23T03:58:04.873Z,95.80
2022-09-23T04:00:36.151Z,95.54
2022-09-23T04:03:07.189Z,96.20
2022-09-23T04:05:39.368Z,96.32
2022-09-23T04:08:07.542Z,96.00
2022-09-23T04:10:35.920Z,95.09
2022-09-23T04:13:04.303Z,95.76
2022-09-23T04:15:32.631Z,94.42
2022-09-23T04:18:01.012Z,94.14
2022-09-23T04:20:30.430Z,95.05
2022-09-23T04:22:58.856Z,95.19
2022-09-23T04:25:27.157Z,95.52
2022-09-23T04:27:55.525Z,94.56
2022-09-23T04:30:23.933Z,94.85
2022-09-23T04:32:54.468Z,95.37
2022-09-23T04:35:22.822Z,95.16
2022-09-23T04:37:51.367Z,95.00
2022-09-23T04:40:19.771Z,95.13
2022-09-23T04:42:48.435Z,95.25
2022-09-23T04:45:16.600Z,95.15
2022-09-23T04:47:44.945Z,95.91
2022-09-23T04:50:13.325Z,96.32
2022-09-23T04:52:41.827Z,97.03
2022-09-23T04:55:11.412Z,96.67
2022-09-23T04:57:39.882Z,96.84
2022-09-23T05:00:09.063Z,96.70
2022-09-23T05:02:42.966Z,96.88
2022-09-23T05:05:11.324Z,96.89
2022-09-23T05:07:39.383Z,96.18
2022-09-23T05:10:09.033Z,95.94
2022-09-23T05:12:37.380Z,95.35
2022-09-23T05:15:06.068Z,95.29
2022-09-23T05:17:34.446Z,95.22
2022-09-23T05:20:03.017Z,95.64
2022-09-23T05:22:31.406Z,95.53
2022-09-23T05:25:00.346Z,95.70
2022-09-23T05:27:29.010Z,96.07
2022-09-23T05:29:57.123Z,96.31
2022-09-23T05:32:25.878Z,96.18
2022-09-23T05:34:55.209Z,95.58
2022-09-23T05:37:23.889Z,95.74
2022-09-23T05:39:52.382Z,95.46
2022-09-23T05:42:21.285Z,95.51
2022-09-23T05:44:49.643Z,95.61
2022-09-23T05:47:17.623Z,95.62
2022-09-23T05:49:59.071Z,95.91
2022-09-23T05:52:27.871Z,95.90
2022-09-23T05:54:56.319Z,96.22
2022-09-23T05:57:24.717Z,95.16
2022-09-23T05:59:53.092Z,95.44
2022-09-23T06:02:21.731Z,95.10
2022-09-23T06:04:50.137Z,94.89
2022-09-23T06:07:18.937Z,95.22
2022-09-23T06:09:47.335Z,94.75
2022-09-23T06:12:15.748Z,94.75
2022-09-23T06:14:44.193Z,94.06
2022-09-23T06:17:12.551Z,94.43
2022-09-23T06:19:40.956Z,94.28
2022-09-23T06:22:08.977Z,93.79
2022-09-23T06:24:37.338Z,93.37
2022-09-23T06:27:05.740Z,92.41
2022-09-23T06:29:33.725Z,90.91
2022-09-23T06:32:02.317Z,90.54
2022-09-23T06:34:33.359Z,90.15
2022-09-23T06:37:15.848Z,90.16
2022-09-23T06:39:46.891Z,89.95
2022-09-23T06:42:16.618Z,89.13
2022-09-23T06:44:45.311Z,88.25
2022-09-23T06:47:14.548Z,87.22
2022-09-23T06:49:43.152Z,86.61
2022-09-23T06:52:11.365Z,85.31
2022-09-23T06:54:39.748Z,85.62
2022-09-23T06:57:07.715Z,84.22
2022-09-23T06:59:36.122Z,83.22
2022-09-23T07:02:04.257Z,82.54
2022-09-23T07:04:32.823Z,82.80
2022-09-23T07:07:01.234Z,82.88
2022-09-23T07:09:29.654Z,82.43
2022-09-23T07:11:58.108Z,82.52
2022-09-23T07:14:26.973Z,82.45
2022-09-23T07:16:55.390Z,82.08
2022-09-23T07:19:24.419Z,81.49
2022-09-23T07:21:52.755Z,81.71
2022-09-23T07:24:21.099Z,81.51
2022-09-23T07:26:49.689Z,81.76
2022-09-23T07:29:18.300Z,81.65
2022-09-23T07:31:46.819Z,81.08
2022-09-23T07:34:15.212Z,80.79
2022-09-23T07:36:43.647Z,80.75
2022-09-23T07:39:14.036Z,80.71
2022-09-23T07:41:44.596Z,79.86
2022-09-23T07:44:13.668Z,79.59
2022-09-23T07:46:42.161Z,79.50
2022-09-23T07:49:10.842Z,79.05
2022-09-23T07:51:41.449Z,78.88
2022-09-23T07:54:14.574Z,78.72
2022-09-23T07:56:44.221Z,78.63
2022-09-23T07:59:20.972Z,78.07
2022-09-23T08:01:52.983Z,78.27
2022-09-23T08:04:31.808Z,78.21
2022-09-23T08:07:04.225Z,77.52
2022-09-23T08:09:42.588Z,77.62
2022-09-23T08:12:16.080Z,77.44
2022-09-23T08:14:44.944Z,77.96
2022-09-23T08:17:15.666Z,77.83
2022-09-23T08:19:43.983Z,77.49
2022-09-23T08:22:12.370Z,77.12
2022-09-23T08:24:40.774Z,76.13
2022-09-23T08:27:10.868Z,76.00
2022-09-23T08:29:38.902Z,75.75
2022-09-23T08:32:07.419Z,75.68
2022-09-23T08:34:36.786Z,75.71
2022-09-23T08:37:05.236Z,75.17
2022-09-23T08:39:33.425Z,74.65
2022-09-23T08:42:27.683Z,74.48
2022-09-23T08:44:59.091Z,74.21
2022-09-23T08:47:52.774Z,74.14
2022-09-23T08:50:24.402Z,74.01
2022-09-23T08:52:58.826Z,73.65
2022-09-23T08:55:42.580Z,73.19
2022-09-23T08:58:53.900Z,72.42
2022-09-23T09:01:33.329Z,72.03
2022-09-23T09:04:16.520Z,71.71
2022-09-23T09:07:35.094Z,71.64
2022-09-23T09:10:04.602Z,71.56
2022-09-23T09:12:41.318Z,70.47
2022-09-23T09:15:14.928Z,69.12
2022-09-23T09:18:21.912Z,69.58
2022-09-23T09:21:01.816Z,70.17
2022-09-23T09:23:56.140Z,70.78
2022-09-23T09:26:28.413Z,70.99
2022-09-23T09:29:11.466Z,70.94
2022-09-23T09:31:50.700Z,70.29
2022-09-23T09:34:46.542Z,69.36
2022-09-23T09:37:20.876Z,68.49
2022-09-23T09:39:49.796Z,68.33
2022-09-23T09:42:40.623Z,68.20
2022-09-23T09:46:14.628Z,68.87
2022-09-23T09:49:01.650Z,68.10
2022-09-23T09:51:30.668Z,67.68
2022-09-23T09:54:27.509Z,67.21
2022-09-23T09:56:56.449Z,67.22
2022-09-23T09:59:29.794Z,67.85
2022-09-23T10:02:37.358Z,67.20
2022-09-23T10:05:09.030Z,66.47
2022-09-23T10:07:37.416Z,66.69
2022-09-23T10:10:33.732Z,66.01
2022-09-23T10:13:16.543Z,65.58
2022-09-23T10:15:45.920Z,63.98
2022-09-23T10:18:32.633Z,64.62
2022-09-23T10:21:10.862Z,65.02
2022-09-23T10:24:00.896Z,64.96
2022-09-23T10:26:46.405Z,65.04
2022-09-23T10:29:34.273Z,64.08
2022-09-23T10:32:21.760Z,63.91
2022-09-23T10:34:58.883Z,63.92
2022-09-23T10:37:43.356Z,63.67
2022-09-23T10:40:49.917Z,63.47
2022-09-23T10:43:36.151Z,63.42
2022-09-23T10:46:27.659Z,63.83
2022-09-23T10:49:32.529Z,63.02
2022-09-23T10:52:46.909Z,63.71
2022-09-23T10:55:39.120Z,61.79
2022-09-23T10:58:25.069Z,61.17
2022-09-23T11:01:30.192Z,59.69
2022-09-23T11:04:29.258Z,60.36
2022-09-23T11:07:40.015Z,57.45
2022-09-23T11:11:01.941Z,57.54
2022-09-23T11:13:54.501Z,56.40
2022-09-23T11:16:26.076Z,57.56
2022-09-23T11:18:58.013Z,59.45
2022-09-23T11:21:41.708Z,59.85
2022-09-23T11:24:58.545Z,59.82
2022-09-23T11:28:03.917Z,60.08
2022-09-23T11:31:06.390Z,58.43
2022-09-23T11:33:58.722Z,58.80
2022-09-23T11:36:39.187Z,59.25
2022-09-23T11:39:19.290Z,58.44
2022-09-23T11:41:51.218Z,57.87
2022-09-23T11:44:35.342Z,57.44
2022-09-23T11:47:30.724Z,57.59
2022-09-23T11:50:12.878Z,57.00
2022-09-23T11:53:22.162Z,56.37
2022-09-23T11:56:13.053Z,56.34
2022-09-23T11:58:53.191Z,56.60
2022-09-23T12:01:43.117Z,57.41
2022-09-23T12:04:21.175Z,57.35
2022-09-23T12:07:17.746Z,58.28
2022-09-23T12:10:01.200Z,58.10
2022-09-23T12:12:47.748Z,58.38
2022-09-23T12:15:34.432Z,58.30
2022-09-23T12:18:52.658Z,58.99
2022-09-23T12:21:56.565Z,59.13
2022-09-23T12:25:13.192Z,58.95
2022-09-23T12:27:45.713Z,60.76
2022-09-23T12:30:25.082Z,61.76
2022-09-23T12:32:54.319Z,61.91
2022-09-23T12:35:28.614Z,63.76
2022-09-23T12:37:57.064Z,63.40
2022-09-23T12:40:43.674Z,61.82
2022-09-23T12:43:33.048Z,60.17
2022-09-23T12:46:28.254Z,59.38
2022-09-23T12:48:57.413Z,58.48
2022-09-23T12:51:28.071Z,57.56
2022-09-23T12:54:06.138Z,60.10
2022-09-23T12:56:40.162Z,59.98
2022-09-23T12:59:16.932Z,59.12
2022-09-23T13:01:45.820Z,57.42
2022-09-23T13:04:50.971Z,56.67
2022-09-23T13:07:34.125Z,56.71
2022-09-23T13:10:34.722Z,57.34
2022-09-23T13:13:03.612Z,57.18
2022-09-23T13:15:37.056Z,57.80
2022-09-23T13:18:20.269Z,58.61
2022-09-23T13:20:50.295Z,57.86
2022-09-23T13:23:27.508Z,52.89
2022-09-23T13:26:12.266Z,54.03
2022-09-23T13:28:55.636Z,54.01
2022-09-23T13:31:24.178Z,53.72
2022-09-23T13:34:04.195Z,50.70
2022-09-23T13:36:33.552Z,52.98
2022-09-23T13:39:27.627Z,52.32
2022-09-23T13:42:03.045Z,52.26
2022-09-23T13:44:31.614Z,54.54
2022-09-23T13:47:06.322Z,53.19
2022-09-23T13:49:37.377Z,52.72
2022-09-23T13:52:05.916Z,48.69
2022-09-23T13:54:50.902Z,52.12
2022-09-23T13:57:33.938Z,51.98
2022-09-23T14:00:23.333Z,50.88
2022-09-23T14:02:53.041Z,50.81
2022-09-23T14:05:28.347Z,52.03
2022-09-23T14:07:58.046Z,52.69
2022-09-23T14:10:27.755Z,53.90
2022-09-23T14:12:57.329Z,55.15
2022-09-23T14:15:26.303Z,55.60
2022-09-23T14:18:04.668Z,55.97
2022-09-23T14:20:34.339Z,56.66
2022-09-23T14:23:12.826Z,59.54
2022-09-23T14:25:42.882Z,58.96
2022-09-23T14:28:25.416Z,59.11
2022-09-23T14:30:57.802Z,60.77
2022-09-23T14:33:34.939Z,60.35
2022-09-23T14:36:30.519Z,59.61
2022-09-23T14:39:08.094Z,57.64
2022-09-23T14:41:47.018Z,58.72
2022-09-23T14:44:26.764Z,58.94
2022-09-23T14:46:59.416Z,58.22
2022-09-23T14:49:28.035Z,57.26
2022-09-23T14:52:05.037Z,56.46
2022-09-23T14:54:46.927Z,56.42
2022-09-23T14:57:24.293Z,53.93
2022-09-23T15:00:20.274Z,53.66
2022-09-23T15:03:06.410Z,52.43
2022-09-23T15:05:47.842Z,53.67
2022-09-23T15:08:21.571Z,55.92
2022-09-23T15:10:50.259Z,56.35
2022-09-23T15:13:23.574Z,56.80
2022-09-23T15:15:55.970Z,57.64
2022-09-23T15:18:30.421Z,59.52
2022-09-23T15:21:21.892Z,55.23
2022-09-23T15:23:56.107Z,55.82
2022-09-23T15:26:25.254Z,54.26
2022-09-23T15:28:55.915Z,55.68
2022-09-23T15:31:26.630Z,56.64
2022-09-23T15:33:56.058Z,56.88
2022-09-23T15:36:29.180Z,55.57
2022-09-23T15:38:58.153Z,56.19
2022-09-23T15:41:26.471Z,57.47
2022-09-23T15:43:56.522Z,58.69
2022-09-23T15:46:30.363Z,59.56
2022-09-23T15:49:02.237Z,59.31
2022-09-23T15:51:31.002Z,59.63
2022-09-23T15:53:59.443Z,56.83
2022-09-23T15:56:27.980Z,56.37
2022-09-23T15:58:56.795Z,56.73
2022-09-23T16:01:35.907Z,57.04
2022-09-23T16:04:05.212Z,57.80
2022-09-23T16:06:36.069Z,58.70
2022-09-23T16:09:04.555Z,59.05
2022-09-23T16:11:33.331Z,59.85
2022-09-23T16:14:02.091Z,60.35
2022-09-23T16:16:31.123Z,60.31
2022-09-23T16:18:59.881Z,61.48
2022-09-23T16:21:29.708Z,61.74
2022-09-23T16:23:59.253Z,62.02
2022-09-23T16:26:39.750Z,62.58
2022-09-23T16:29:08.533Z,62.68
2022-09-23T16:31:38.090Z,62.64
2022-09-23T16:34:06.849Z,62.54
2022-09-23T16:36:44.308Z,62.61
2022-09-23T16:39:14.882Z,62.32
2022-09-23T16:41:43.634Z,62.27
2022-09-23T16:44:12.526Z,62.48
2022-09-23T16:46:42.910Z,62.70
2022-09-23T16:49:12.469Z,64.03
2022-09-23T16:51:42.064Z,64.67
2022-09-23T16:54:14.342Z,64.70
2022-09-23T16:56:45.037Z,64.91
2022-09-23T16:59:16.099Z,65.29
2022-09-23T17:02:02.965Z,65.95
2022-09-23T17:04:31.508Z,66.50
2022-09-23T17:07:00.257Z,67.38
2022-09-23T17:09:30.281Z,67.58
2022-09-23T17:12:06.287Z,67.43
2022-09-23T17:14:34.850Z,68.06
2022-09-23T17:17:03.116Z,68.25
2022-09-23T17:19:31.726Z,68.37
2022-09-23T17:22:00.109Z,69.14
2022-09-23T17:24:28.150Z,70.08
2022-09-23T17:26:56.522Z,70.46
2022-09-23T17:29:26.848Z,70.79
2022-09-23T17:31:56.149Z,71.01
2022-09-23T17:34:25.143Z,71.26
2022-09-23T17:36:53.554Z,71.45
2022-09-23T17:39:22.104Z,71.64
2022-09-23T17:41:50.623Z,71.36
2022-09-23T17:44:19.082Z,71.38
2022-09-23T17:46:47.868Z,71.31
2022-09-23T17:49:17.795Z,71.15
2022-09-23T17:51:46.337Z,71.38
2022-09-23T17:54:16.170Z,71.23
2022-09-23T17:56:44.620Z,70.93
2022-09-23T17:59:14.188Z,70.65
2022-09-23T18:01:42.323Z,70.51
2022-09-23T18:04:10.860Z,70.55
2022-09-23T18:06:39.628Z,70.17
2022-09-23T18:09:08.839Z,69.26
2022-09-23T18:11:49.328Z,65.53
2022-09-23T18:14:21.641Z,64.43
2022-09-23T18:16:53.661Z,64.07
2022-09-23T18:19:25.108Z,64.19
2022-09-23T18:21:56.365Z,65.14
2022-09-23T18:24:32.464Z,65.43
2022-09-23T18:27:02.661Z,66.64
2022-09-23T18:29:31.675Z,66.82
2022-09-23T18:32:00.631Z,67.20
2022-09-23T18:34:29.545Z,66.21
2022-09-23T18:36:57.962Z,67.39
2022-09-23T18:39:26.476Z,69.29
2022-09-23T18:41:54.883Z,69.78
2022-09-23T18:44:23.576Z,70.40
2022-09-23T18:46:51.959Z,70.78
2022-09-23T18:49:37.757Z,70.13
2022-09-23T18:52:06.727Z,68.28
2022-09-23T18:54:35.187Z,67.75
2022-09-23T18:57:03.585Z,67.28
2022-09-23T18:59:32.086Z,66.80
2022-09-23T19:02:00.551Z,68.21
2022-09-23T19:04:29.111Z,69.14
2022-09-23T19:06:58.061Z,69.52
2022-09-23T19:09:26.565Z,69.49
2022-09-23T19:11:55.213Z,69.35
2022-09-23T19:14:23.653Z,69.00
2022-09-23T19:16:52.173Z,69.52
2022-09-23T19:19:20.570Z,69.75
2022-09-23T19:21:48.936Z,69.70
2022-09-23T19:24:20.302Z,69.42
2022-09-23T19:26:48.755Z,70.15
2022-09-23T19:29:21.726Z,70.43
2022-09-23T19:31:51.083Z,70.69
2022-09-23T19:34:26.036Z,70.79
2022-09-23T19:36:57.690Z,69.82
2022-09-23T19:39:31.708Z,69.26
2022-09-23T19:42:01.318Z,69.33
2022-09-23T19:44:29.747Z,68.83
2022-09-23T19:46:58.273Z,68.95
2022-09-23T19:49:26.873Z,68.38
2022-09-23T19:51:56.544Z,69.28
2022-09-23T19:54:27.564Z,69.45
2022-09-23T19:56:56.218Z,68.96
2022-09-23T19:59:26.280Z,68.41
2022-09-23T20:01:55.127Z,69.14
2022-09-23T20:04:23.770Z,69.38
2022-09-23T20:06:52.244Z,69.86
2022-09-23T20:09:20.604Z,71.15
2022-09-23T20:11:49.057Z,71.34
2022-09-23T20:14:19.514Z,71.53
2022-09-23T20:16:47.544Z,71.24
2022-09-23T20:19:16.170Z,71.01
2022-09-23T20:21:44.551Z,71.26
2022-09-23T20:24:13.267Z,71.81
2022-09-23T20:27:01.298Z,71.06
2022-09-23T20:29:29.983Z,70.23
2022-09-23T20:31:59.237Z,70.44
2022-09-23T20:34:29.686Z,70.09
2022-09-23T20:36:59.273Z,69.76
2022-09-23T20:39:28.097Z,69.30
2022-09-23T20:41:56.511Z,69.13
2022-09-23T20:44:27.581Z,69.87
2022-09-23T20:46:56.060Z,69.52
2022-09-23T20:49:24.733Z,69.16
2022-09-23T20:51:53.134Z,69.25
2022-09-23T20:54:21.760Z,70.03
2022-09-23T20:56:50.234Z,71.17
2022-09-23T20:59:18.657Z,73.35
2022-09-23T21:01:47.606Z,74.60
2022-09-23T21:04:16.573Z,75.78
2022-09-23T21:06:44.973Z,75.93
2022-09-23T21:09:12.926Z,76.57
2022-09-23T21:11:41.499Z,76.66
2022-09-23T21:14:09.742Z,75.95
2022-09-23T21:16:38.230Z,75.33
2022-09-23T21:19:07.954Z,75.28
2022-09-23T21:21:36.581Z,75.64
2022-09-23T21:24:31.371Z,75.31
2022-09-23T21:26:53.452Z,75.59
2022-09-23T21:29:21.552Z,75.77
2022-09-23T21:31:50.176Z,75.07
2022-09-23T21:34:19.322Z,74.11
2022-09-23T21:36:49.382Z,73.56
2022-09-23T21:39:17.773Z,72.66
2022-09-23T21:41:46.177Z,72.41
2022-09-23T21:44:14.570Z,73.21
2022-09-23T21:46:43.025Z,73.77
2022-09-23T21:49:11.532Z,74.67
2022-09-23T21:51:41.691Z,75.51
2022-09-23T21:54:17.773Z,76.65
2022-09-23T21:56:46.390Z,77.23
2022-09-23T21:59:14.878Z,77.31
2022-09-23T22:01:45.084Z,77.94
2022-09-23T22:04:19.561Z,78.12
2022-09-23T22:06:49.047Z,78.26
2022-09-23T22:09:21.677Z,78.63
2022-09-23T22:12:12.880Z,78.95
2022-09-23T22:14:42.841Z,79.28
2022-09-23T22:17:12.344Z,79.40
2022-09-23T22:19:46.494Z,79.30
2022-09-23T22:22:18.458Z,79.31
2022-09-23T22:24:49.898Z,79.55
2022-09-23T22:27:20.320Z,80.23
2022-09-23T22:30:06.309Z,80.71
2022-09-23T22:32:41.721Z,81.25
2022-09-23T22:35:13.306Z,81.63
2022-09-23T22:37:41.643Z,81.77
2022-09-23T22:40:16.031Z,82.74
2022-09-23T22:42:44.727Z,82.53
2022-09-23T22:45:13.530Z,82.02
2022-09-23T22:47:45.571Z,81.83
2022-09-23T22:50:15.304Z,81.78
2022-09-23T22:52:43.805Z,82.11
2022-09-23T22:55:12.625Z,81.98
2022-09-23T22:57:41.138Z,82.02
2022-09-23T23:00:12.261Z,81.70
2022-09-23T23:02:42.631Z,81.97
2022-09-23T23:05:11.127Z,82.03
2022-09-23T23:07:39.691Z,82.52
2022-09-23T23:10:10.170Z,82.99
2022-09-23T23:12:39.567Z,83.49
2022-09-23T23:15:09.324Z,83.77
2022-09-23T23:17:38.302Z,84.22
2022-09-23T23:20:07.678Z,84.14
2022-09-23T23:22:35.983Z,83.80
2022-09-23T23:25:04.000Z,84.21
2022-09-23T23:27:32.601Z,84.50
2022-09-23T23:30:01.025Z,84.86
2022-09-23T23:32:29.474Z,84.87
2022-09-23T23:34:58.579Z,85.17
2022-09-23T23:37:26.957Z,85.07
2022-09-23T23:39:55.698Z,85.54
2022-09-23T23:42:24.188Z,85.28
2022-09-23T23:44:52.607Z,85.72
2022-09-23T23:47:21.351Z,86.04
2022-09-23T23:49:49.935Z,86.01
2022-09-23T23:52:18.320Z,86.73
2022-09-23T23:54:46.750Z,86.23
2022-09-23T23:57:15.137Z,85.89
2022-09-23T23:59:43.468Z,86.36
